KAGC METAR
PITTSBURGH/ALLEG, PA
Metar
KAGC 202353Z 14003KT 10SM CLR 18/00 A3023 RMK AO2 SLP240 T01830000 10222 20183 56003

23:53 UTC

Wind: 140° 3kt

Visibility: 10 SM

Sky:

Temp: 18 deg C / 64.4 deg F

Dewpoint: 0 deg C / 32 deg F

Pressure: 30.23 inHg

TAF
KAGC 202320Z 2100/2124 VRB03KT P6SM SKC